createdAt,value
2022-12-24T00:01:06.929Z,95550.28
2022-12-24T00:03:53.033Z,95544.69
2022-12-24T00:06:39.022Z,95526.22
2022-12-24T00:09:24.980Z,95537.69
2022-12-24T00:12:11.306Z,95520.03
2022-12-24T00:14:57.141Z,95528.97
2022-12-24T00:17:42.987Z,95543.16
2022-12-24T00:20:28.983Z,95552.31
2022-12-24T00:23:15.911Z,95553.97
2022-12-24T00:26:01.727Z,95562.63
2022-12-24T00:28:47.611Z,95539.66
2022-12-24T00:31:33.393Z,95565.94
2022-12-24T00:34:19.223Z,95561.91
2022-12-24T00:37:05.502Z,95537.47
2022-12-24T00:39:51.357Z,95553.28
2022-12-24T00:42:37.332Z,95546.50
2022-12-24T00:45:23.150Z,95547.16
2022-12-24T00:48:08.955Z,95528.69
2022-12-24T00:50:54.994Z,95543.00
2022-12-24T00:53:40.759Z,95531.34
2022-12-24T00:56:27.023Z,95530.97
2022-12-24T00:59:13.407Z,95554.91
2022-12-24T01:01:59.105Z,95559.50
2022-12-24T01:05:03.511Z,95566.63
2022-12-24T01:07:49.689Z,95577.22
2022-12-24T01:10:35.368Z,95575.69
2022-12-24T01:13:21.435Z,95578.88
2022-12-24T01:16:16.275Z,95579.03
2022-12-24T01:19:02.127Z,95558.44
2022-12-24T01:21:47.852Z,95568.28
2022-12-24T01:24:33.794Z,95563.44
2022-12-24T01:27:21.081Z,95567.16
2022-12-24T01:30:08.783Z,95575.78
2022-12-24T01:32:54.729Z,95568.97
2022-12-24T01:35:44.034Z,95543.38
2022-12-24T01:38:30.139Z,95557.56
2022-12-24T01:41:38.661Z,95548.06
2022-12-24T01:44:36.713Z,95539.38
2022-12-24T01:47:26.888Z,95532.78
2022-12-24T01:50:15.886Z,95536.72
2022-12-24T01:53:02.125Z,95538.22
2022-12-24T01:55:48.261Z,95532.41
2022-12-24T01:58:35.884Z,95537.69
2022-12-24T02:01:25.925Z,95529.75
2022-12-24T02:04:26.034Z,95509.09
2022-12-24T02:07:12.480Z,95517.25
2022-12-24T02:10:01.433Z,95536.25
2022-12-24T02:12:47.565Z,95526.94
2022-12-24T02:15:40.611Z,95537.84
2022-12-24T02:18:33.176Z,95531.16
2022-12-24T02:21:42.540Z,95554.44
2022-12-24T02:24:43.690Z,95541.53
2022-12-24T02:28:07.753Z,95553.78
2022-12-24T02:31:06.155Z,95549.03
2022-12-24T02:34:00.706Z,95560.03
2022-12-24T02:36:54.786Z,95548.75
2022-12-24T02:39:45.053Z,95560.19
2022-12-24T02:42:37.220Z,95551.41
2022-12-24T02:45:27.730Z,95545.94
2022-12-24T02:48:15.835Z,95524.81
2022-12-24T02:51:07.219Z,95540.94
2022-12-24T02:53:53.288Z,95545.13
2022-12-24T02:56:54.320Z,95553.06
2022-12-24T03:00:06.471Z,95542.75
2022-12-24T03:03:23.855Z,95539.13
2022-12-24T03:06:12.910Z,95509.00
2022-12-24T03:09:07.740Z,95519.22
2022-12-24T03:12:08.579Z,95506.28
2022-12-24T03:14:54.312Z,95498.63
2022-12-24T03:17:41.059Z,95508.47
2022-12-24T03:20:34.106Z,95509.16
2022-12-24T03:23:20.012Z,95489.03
2022-12-24T03:26:08.606Z,95512.78
2022-12-24T03:28:54.821Z,95524.38
2022-12-24T03:31:52.507Z,95508.53
2022-12-24T03:34:38.321Z,95504.63
2022-12-24T03:37:25.445Z,95513.94
2022-12-24T03:40:11.632Z,95527.69
2022-12-24T03:42:57.786Z,95512.78
2022-12-24T03:45:44.142Z,95520.56
2022-12-24T03:48:32.809Z,95507.31
2022-12-24T03:51:20.894Z,95498.25
2022-12-24T03:54:06.977Z,95494.94
2022-12-24T03:56:52.710Z,95501.91
2022-12-24T03:59:38.605Z,95503.56
2022-12-24T04:02:24.892Z,95505.38
2022-12-24T04:05:15.945Z,95502.03
2022-12-24T04:08:01.875Z,95510.22
2022-12-24T04:10:47.622Z,95503.78
2022-12-24T04:13:33.626Z,95510.75
2022-12-24T04:16:19.446Z,95508.25
2022-12-24T04:19:05.220Z,95492.22
2022-12-24T04:21:51.270Z,95485.22
2022-12-24T04:24:36.975Z,95506.97
2022-12-24T04:27:26.839Z,95515.91
2022-12-24T04:30:16.507Z,95502.66
2022-12-24T04:33:02.603Z,95513.78
2022-12-24T04:35:48.494Z,95489.47
2022-12-24T04:38:35.099Z,95514.75
2022-12-24T04:41:24.794Z,95509.16
2022-12-24T04:44:11.165Z,95490.69
2022-12-24T04:46:56.964Z,95495.00
2022-12-24T04:49:42.929Z,95514.63
2022-12-24T04:52:28.861Z,95504.00
2022-12-24T04:55:14.813Z,95510.69
2022-12-24T04:58:00.599Z,95511.50
2022-12-24T05:00:46.713Z,95497.28
2022-12-24T05:03:33.332Z,95499.91
2022-12-24T05:06:22.270Z,95504.22
2022-12-24T05:09:08.314Z,95514.81
2022-12-24T05:11:53.953Z,95520.50
2022-12-24T05:14:40.431Z,95506.22
2022-12-24T05:17:26.177Z,95501.91
2022-12-24T05:20:12.373Z,95502.94
2022-12-24T05:23:16.820Z,95494.25
2022-12-24T05:26:22.022Z,95517.72
2022-12-24T05:29:09.120Z,95498.38
2022-12-24T05:31:54.960Z,95528.44
2022-12-24T05:34:40.655Z,95523.47
2022-12-24T05:37:26.617Z,95531.94
2022-12-24T05:40:12.583Z,95524.50
2022-12-24T05:42:58.610Z,95504.56
2022-12-24T05:45:44.547Z,95496.97
2022-12-24T05:48:30.362Z,95508.41
2022-12-24T05:51:19.698Z,95519.28
2022-12-24T05:54:05.837Z,95501.94
2022-12-24T05:56:52.010Z,95516.66
2022-12-24T05:59:37.906Z,95512.34
2022-12-24T06:02:23.838Z,95509.00
2022-12-24T06:05:10.130Z,95498.47
2022-12-24T06:07:56.082Z,95512.63
2022-12-24T06:10:42.147Z,95505.44
2022-12-24T06:13:28.751Z,95547.75
2022-12-24T06:16:17.119Z,95547.63
2022-12-24T06:19:06.773Z,95523.31
2022-12-24T06:21:52.938Z,95527.09
2022-12-24T06:24:38.614Z,95523.31
2022-12-24T06:27:24.423Z,95519.84
2022-12-24T06:30:10.788Z,95549.56
2022-12-24T06:32:56.658Z,95529.44
2022-12-24T06:35:42.669Z,95557.06
2022-12-24T06:38:31.080Z,95560.25
2022-12-24T06:41:17.900Z,95524.69
2022-12-24T06:44:04.385Z,95553.50
2022-12-24T06:46:50.603Z,95552.84
2022-12-24T06:49:36.365Z,95542.53
2022-12-24T06:52:22.209Z,95543.81
2022-12-24T06:55:08.441Z,95564.81
2022-12-24T06:57:54.473Z,95555.50
2022-12-24T07:00:40.221Z,95580.56
2022-12-24T07:03:26.004Z,95577.06
2022-12-24T07:06:19.765Z,95589.34
2022-12-24T07:09:05.884Z,95589.06
2022-12-24T07:11:51.656Z,95574.88
2022-12-24T07:14:37.486Z,95581.22
2022-12-24T07:17:24.208Z,95588.22
2022-12-24T07:20:13.754Z,95590.53
2022-12-24T07:22:59.730Z,95576.91
2022-12-24T07:25:45.419Z,95583.75
2022-12-24T07:28:31.914Z,95564.13
2022-12-24T07:31:17.812Z,95600.41
2022-12-24T07:34:03.848Z,95588.50
2022-12-24T07:36:49.557Z,95589.16
2022-12-24T07:39:35.430Z,95600.47
2022-12-24T07:42:21.836Z,95594.19
2022-12-24T07:45:09.238Z,95594.56
2022-12-24T07:47:55.138Z,95588.25
2022-12-24T07:50:41.319Z,95600.22
2022-12-24T07:53:28.666Z,95602.41
2022-12-24T07:56:15.538Z,95613.41
2022-12-24T07:59:01.631Z,95627.88
2022-12-24T08:01:47.626Z,95645.81
2022-12-24T08:04:36.413Z,95634.91
2022-12-24T08:07:22.441Z,95637.41
2022-12-24T08:10:08.837Z,95621.47
2022-12-24T08:12:54.624Z,95643.94
2022-12-24T08:15:40.971Z,95645.25
2022-12-24T08:18:27.025Z,95623.00
2022-12-24T08:21:13.133Z,95642.59
2022-12-24T08:23:59.074Z,95652.31
2022-12-24T08:26:44.906Z,95635.63
2022-12-24T08:29:30.918Z,95654.16
2022-12-24T08:32:17.131Z,95634.38
2022-12-24T08:35:03.383Z,95641.94
2022-12-24T08:37:49.600Z,95646.78
2022-12-24T08:40:35.373Z,95623.34
2022-12-24T08:43:21.503Z,95626.53
2022-12-24T08:46:07.450Z,95641.84
2022-12-24T08:48:53.381Z,95636.41
2022-12-24T08:51:39.904Z,95640.41
2022-12-24T08:54:25.918Z,95639.13
2022-12-24T08:57:12.356Z,95639.47
2022-12-24T08:59:58.484Z,95611.88
2022-12-24T09:02:44.440Z,95616.03
2022-12-24T09:05:30.507Z,95635.00
2022-12-24T09:08:16.660Z,95644.84
2022-12-24T09:11:04.534Z,95623.78
2022-12-24T09:13:50.745Z,95633.09
2022-12-24T09:16:36.706Z,95627.78
2022-12-24T09:19:22.817Z,95612.50
2022-12-24T09:22:08.747Z,95603.03
2022-12-24T09:24:54.940Z,95604.56
2022-12-24T09:27:41.032Z,95617.50
2022-12-24T09:30:27.013Z,95605.69
2022-12-24T09:33:12.746Z,95602.22
2022-12-24T09:35:59.028Z,95600.91
2022-12-24T09:38:46.861Z,95606.88
2022-12-24T09:41:42.844Z,95586.63
2022-12-24T09:44:44.713Z,95596.09
2022-12-24T09:47:40.043Z,95555.91
2022-12-24T09:50:42.616Z,95575.69
2022-12-24T09:53:48.600Z,95583.84
2022-12-24T09:56:42.096Z,95580.38
2022-12-24T09:59:45.298Z,95574.22
2022-12-24T10:02:33.712Z,95603.19
2022-12-24T10:05:42.590Z,95602.34
2022-12-24T10:08:47.747Z,95592.38
2022-12-24T10:11:51.852Z,95599.06
2022-12-24T10:15:05.201Z,95588.75
2022-12-24T10:18:21.789Z,95586.41
2022-12-24T10:21:15.506Z,95600.41
2022-12-24T10:24:15.663Z,95584.09
2022-12-24T10:27:09.310Z,95584.72
2022-12-24T10:30:01.968Z,95583.06
2022-12-24T10:32:48.534Z,95591.38
2022-12-24T10:35:37.947Z,95585.63
2022-12-24T10:38:24.933Z,95587.09
2022-12-24T10:41:11.928Z,95575.69
2022-12-24T10:43:59.860Z,95574.06
2022-12-24T10:46:46.977Z,95553.31
2022-12-24T10:49:56.116Z,95565.53
2022-12-24T10:52:45.044Z,95574.19
2022-12-24T10:55:31.573Z,95577.69
2022-12-24T10:58:20.170Z,95589.50
2022-12-24T11:01:07.293Z,95580.63
2022-12-24T11:04:01.705Z,95575.31
2022-12-24T11:07:07.274Z,95582.06
2022-12-24T11:10:07.256Z,95548.28
2022-12-24T11:13:13.234Z,95565.25
2022-12-24T11:16:08.935Z,95542.31
2022-12-24T11:18:58.954Z,95571.63
2022-12-24T11:21:44.897Z,95568.38
2022-12-24T11:24:34.165Z,95575.28
2022-12-24T11:27:29.818Z,95570.19
2022-12-24T11:30:16.013Z,95564.75
2022-12-24T11:33:01.642Z,95547.91
2022-12-24T11:35:50.209Z,95537.84
2022-12-24T11:38:36.368Z,95527.59
2022-12-24T11:41:23.158Z,95542.97
2022-12-24T11:44:09.771Z,95540.16
2022-12-24T11:46:59.131Z,95519.13
2022-12-24T11:49:45.268Z,95530.97
2022-12-24T11:52:31.853Z,95522.19
2022-12-24T11:55:54.080Z,95523.63
2022-12-24T11:58:47.501Z,95539.00
2022-12-24T12:01:38.330Z,95543.78
2022-12-24T12:04:29.746Z,95529.94
2022-12-24T12:07:28.085Z,95532.00
2022-12-24T12:10:30.722Z,95540.28
2022-12-24T12:13:24.337Z,95530.44
2022-12-24T12:16:55.187Z,95527.75
2022-12-24T12:20:06.239Z,95511.63
2022-12-24T12:23:18.857Z,95519.47
2022-12-24T12:26:12.659Z,95527.56
2022-12-24T12:29:02.188Z,95530.88
2022-12-24T12:31:49.755Z,95535.06
2022-12-24T12:35:17.580Z,95550.84
2022-12-24T12:38:11.122Z,95541.16
2022-12-24T12:41:03.214Z,95558.97
2022-12-24T12:43:58.342Z,95557.88
2022-12-24T12:47:06.527Z,95554.94
2022-12-24T12:50:11.416Z,95555.38
2022-12-24T12:53:19.228Z,95560.81
2022-12-24T12:56:29.927Z,95563.13
2022-12-24T13:00:02.719Z,95564.50
2022-12-24T13:03:27.579Z,95588.00
2022-12-24T13:06:29.415Z,95583.00
2022-12-24T13:09:46.973Z,95561.81
2022-12-24T13:12:33.168Z,95582.63
2022-12-24T13:15:57.166Z,95554.31
2022-12-24T13:19:21.781Z,95557.63
2022-12-24T13:22:15.989Z,95553.03
2022-12-24T13:25:02.244Z,95542.69
2022-12-24T13:27:48.411Z,95568.34
2022-12-24T13:30:41.188Z,95560.06
2022-12-24T13:33:39.377Z,95555.31
2022-12-24T13:36:26.083Z,95551.81
2022-12-24T13:39:19.821Z,95555.06
2022-12-24T13:42:07.120Z,95542.00
2022-12-24T13:45:34.328Z,95585.19
2022-12-24T13:48:30.547Z,95588.69
2022-12-24T13:51:20.645Z,95608.63
2022-12-24T13:54:11.880Z,95602.19
2022-12-24T13:56:59.268Z,95602.66
2022-12-24T13:59:46.863Z,95598.06
2022-12-24T14:02:37.197Z,95620.09
2022-12-24T14:05:27.860Z,95622.16
2022-12-24T14:08:22.720Z,95618.25
2022-12-24T14:11:23.843Z,95622.25
2022-12-24T14:14:12.208Z,95621.34
2022-12-24T14:17:00.381Z,95634.63
2022-12-24T14:19:58.066Z,95629.47
2022-12-24T14:22:48.020Z,95638.53
2022-12-24T14:25:34.706Z,95645.13
2022-12-24T14:28:23.689Z,95653.38
2022-12-24T14:31:18.279Z,95658.72
2022-12-24T14:34:09.396Z,95632.06
2022-12-24T14:36:56.848Z,95637.66
2022-12-24T14:39:46.782Z,95649.66
2022-12-24T14:43:07.988Z,95657.06
2022-12-24T14:46:10.121Z,95670.56
2022-12-24T14:49:11.087Z,95688.53
2022-12-24T14:52:03.728Z,95678.31
2022-12-24T14:54:49.641Z,95690.78
2022-12-24T14:57:35.571Z,95691.16
2022-12-24T15:00:21.454Z,95684.78
2022-12-24T15:03:13.963Z,95710.44
2022-12-24T15:06:02.958Z,95710.16
2022-12-24T15:08:50.175Z,95703.31
2022-12-24T15:11:36.170Z,95718.94
2022-12-24T15:14:24.618Z,95715.34
2022-12-24T15:17:12.619Z,95730.75
2022-12-24T15:19:59.271Z,95740.91
2022-12-24T15:22:46.953Z,95742.16
2022-12-24T15:25:33.447Z,95742.06
2022-12-24T15:28:22.954Z,95750.44
2022-12-24T15:31:13.850Z,95751.09
2022-12-24T15:34:00.327Z,95747.75
2022-12-24T15:36:46.710Z,95741.75
2022-12-24T15:39:32.856Z,95739.91
2022-12-24T15:42:19.548Z,95742.41
2022-12-24T15:45:07.628Z,95738.06
2022-12-24T15:48:06.498Z,95745.38
2022-12-24T15:50:56.027Z,95704.28
2022-12-24T15:53:44.571Z,95754.91
2022-12-24T15:56:34.892Z,95753.41
2022-12-24T15:59:32.570Z,95767.91
2022-12-24T16:02:25.631Z,95764.22
2022-12-24T16:05:32.652Z,95783.28
2022-12-24T16:08:24.241Z,95787.81
2022-12-24T16:11:24.150Z,95789.31
2022-12-24T16:14:17.269Z,95792.28
2022-12-24T16:17:03.267Z,95779.97
2022-12-24T16:19:51.265Z,95783.78
2022-12-24T16:22:40.530Z,95789.13
2022-12-24T16:25:28.840Z,95780.13
2022-12-24T16:28:21.952Z,95770.59
2022-12-24T16:31:17.988Z,95769.75
2022-12-24T16:34:05.259Z,95771.41
2022-12-24T16:36:51.119Z,95785.63
2022-12-24T16:39:36.929Z,95782.59
2022-12-24T16:42:41.415Z,95787.94
2022-12-24T16:45:29.376Z,95795.28
2022-12-24T16:48:24.223Z,95771.16
2022-12-24T16:51:10.079Z,95787.16
2022-12-24T16:53:56.037Z,95786.69
2022-12-24T16:56:43.058Z,95778.84
2022-12-24T16:59:29.036Z,95766.31
2022-12-24T17:02:17.260Z,95765.81
2022-12-24T17:05:03.511Z,95789.66
2022-12-24T17:07:50.320Z,95804.75
2022-12-24T17:10:36.442Z,95797.06
2022-12-24T17:13:22.700Z,95813.72
2022-12-24T17:16:08.747Z,95814.19
2022-12-24T17:18:55.080Z,95818.72
2022-12-24T17:21:40.932Z,95818.88
2022-12-24T17:24:26.995Z,95801.84
2022-12-24T17:27:13.256Z,95805.06
2022-12-24T17:29:59.031Z,95803.38
2022-12-24T17:32:44.872Z,95811.88
2022-12-24T17:35:31.572Z,95817.75
2022-12-24T17:38:17.944Z,95817.56
2022-12-24T17:41:06.208Z,95826.53
2022-12-24T17:43:52.272Z,95819.88
2022-12-24T17:46:38.287Z,95817.09
2022-12-24T17:49:24.247Z,95843.06
2022-12-24T17:52:10.351Z,95820.22
2022-12-24T17:54:56.169Z,95820.41
2022-12-24T17:57:42.408Z,95844.13
2022-12-24T18:00:32.734Z,95832.63
2022-12-24T18:03:19.516Z,95843.13
2022-12-24T18:06:08.031Z,95838.78
2022-12-24T18:08:54.821Z,95836.66
2022-12-24T18:11:40.786Z,95829.97
2022-12-24T18:14:26.914Z,95814.09
2022-12-24T18:17:13.168Z,95828.97
2022-12-24T18:20:00.105Z,95824.78
2022-12-24T18:22:46.933Z,95820.59
2022-12-24T18:25:33.179Z,95844.47
2022-12-24T18:28:19.534Z,95842.34
2022-12-24T18:31:17.722Z,95852.16
2022-12-24T18:34:06.399Z,95861.34
2022-12-24T18:36:55.314Z,95861.53
2022-12-24T18:39:43.391Z,95868.91
2022-12-24T18:42:29.732Z,95872.72
2022-12-24T18:45:16.051Z,95879.38
2022-12-24T18:48:02.057Z,95879.91
2022-12-24T18:50:55.407Z,95851.03
2022-12-24T18:53:41.624Z,95870.69
2022-12-24T18:56:27.764Z,95873.00
2022-12-24T18:59:13.859Z,95889.41
2022-12-24T19:01:59.932Z,95880.09
2022-12-24T19:04:46.191Z,95897.81
2022-12-24T19:07:32.112Z,95886.63
2022-12-24T19:10:18.075Z,95901.00
2022-12-24T19:13:04.209Z,95894.28
2022-12-24T19:15:50.537Z,95892.97
2022-12-24T19:18:36.734Z,95904.00
2022-12-24T19:21:22.774Z,95902.16
2022-12-24T19:24:10.697Z,95901.72
2022-12-24T19:26:56.808Z,95898.84
2022-12-24T19:29:43.011Z,95900.19
2022-12-24T19:32:28.922Z,95900.19
2022-12-24T19:35:14.743Z,95902.03
2022-12-24T19:38:01.218Z,95889.72
2022-12-24T19:40:47.270Z,95916.41
2022-12-24T19:43:33.272Z,95921.09
2022-12-24T19:46:22.757Z,95930.09
2022-12-24T19:49:11.145Z,95934.94
2022-12-24T19:51:57.275Z,95943.59
2022-12-24T19:54:43.242Z,95937.13
2022-12-24T19:57:29.093Z,95929.28
2022-12-24T20:00:15.166Z,95914.47
2022-12-24T20:03:01.454Z,95914.28
2022-12-24T20:05:47.973Z,95948.81
2022-12-24T20:08:34.720Z,95936.81
2022-12-24T20:11:22.397Z,95947.81
2022-12-24T20:14:08.741Z,95941.81
2022-12-24T20:16:55.508Z,95953.97
2022-12-24T20:19:41.551Z,95937.50
2022-12-24T20:22:27.695Z,95925.31
2022-12-24T20:25:13.505Z,95928.66
2022-12-24T20:27:59.423Z,95946.84
2022-12-24T20:30:45.484Z,95948.69
2022-12-24T20:33:31.251Z,95955.00
2022-12-24T20:36:18.942Z,95962.19
2022-12-24T20:39:06.222Z,95957.66
2022-12-24T20:41:52.099Z,95958.69
2022-12-24T20:44:38.065Z,95955.88
2022-12-24T20:47:24.168Z,95960.84
2022-12-24T20:50:10.517Z,95946.22
2022-12-24T20:52:56.793Z,95954.38
2022-12-24T20:55:42.963Z,95944.69
2022-12-24T20:58:30.383Z,95928.03
2022-12-24T21:01:19.714Z,95956.34
2022-12-24T21:04:08.214Z,95960.84
2022-12-24T21:06:53.987Z,95954.69
2022-12-24T21:09:40.467Z,95963.22
2022-12-24T21:12:45.635Z,95976.41
2022-12-24T21:15:35.151Z,95959.59
2022-12-24T21:18:22.297Z,95948.59
2022-12-24T21:21:08.442Z,95975.94
2022-12-24T21:23:55.544Z,95967.94
2022-12-24T21:26:41.461Z,95979.25
2022-12-24T21:29:27.560Z,95975.63
2022-12-24T21:32:13.520Z,95974.63
2022-12-24T21:34:59.435Z,95978.78
2022-12-24T21:37:45.218Z,95954.28
2022-12-24T21:40:31.101Z,95968.78
2022-12-24T21:43:16.892Z,95974.78
2022-12-24T21:46:13.112Z,95971.13
2022-12-24T21:49:17.354Z,95982.63
2022-12-24T21:52:03.822Z,95957.78
2022-12-24T21:54:50.521Z,95976.78
2022-12-24T21:57:54.607Z,95986.50
2022-12-24T22:00:40.726Z,95991.66
2022-12-24T22:03:26.603Z,95968.81
2022-12-24T22:06:32.407Z,95993.50
2022-12-24T22:09:36.955Z,95994.16
2022-12-24T22:12:23.502Z,95981.81
2022-12-24T22:15:10.363Z,95973.13
2022-12-24T22:17:56.207Z,95986.63
2022-12-24T22:20:42.987Z,95963.78
2022-12-24T22:23:28.808Z,96000.63
2022-12-24T22:26:16.503Z,95995.63
2022-12-24T22:29:05.322Z,95997.78
2022-12-24T22:31:51.400Z,95985.78
2022-12-24T22:34:37.211Z,95989.44
2022-12-24T22:37:23.155Z,95991.13
2022-12-24T22:40:09.622Z,95994.28
2022-12-24T22:42:55.846Z,95996.94
2022-12-24T22:45:41.653Z,95978.75
2022-12-24T22:48:27.415Z,95994.94
2022-12-24T22:51:18.836Z,96005.47
2022-12-24T22:54:05.187Z,96012.16
2022-12-24T22:56:51.442Z,95978.78
2022-12-24T22:59:37.472Z,95981.09
2022-12-24T23:02:28.217Z,96000.63
2022-12-24T23:05:15.189Z,96000.81
2022-12-24T23:08:01.416Z,95999.63
2022-12-24T23:10:47.531Z,95988.78
2022-12-24T23:13:51.949Z,96013.47
2022-12-24T23:16:38.056Z,96007.13
2022-12-24T23:19:23.723Z,95996.28
2022-12-24T23:22:10.812Z,96012.97
2022-12-24T23:24:56.638Z,95997.25
2022-12-24T23:27:42.626Z,96011.81
2022-12-24T23:30:28.490Z,96015.31
2022-12-24T23:33:14.437Z,96010.78
2022-12-24T23:36:00.711Z,96003.94
2022-12-24T23:38:47.320Z,96017.63
2022-12-24T23:41:33.263Z,96017.78
2022-12-24T23:44:19.220Z,95994.94
2022-12-24T23:47:05.293Z,96023.78
2022-12-24T23:49:51.366Z,96024.47
2022-12-24T23:52:37.244Z,96024.81
2022-12-24T23:55:23.157Z,96035.50
2022-12-24T23:58:10.746Z,96025.94
